sensor_id;sensor_type;location;lat;lon;timestamp;P1;durP1;ratioP1;P2;durP2;ratioP2
54679;SDS011;40578;53.178;5.846;2023-07-16T00:02:03;14.77;;;4.47;;
54679;SDS011;40578;53.178;5.846;2023-07-16T00:04:30;13.77;;;4.50;;
54679;SDS011;40578;53.178;5.846;2023-07-16T00:07:01;17.23;;;4.90;;
54679;SDS011;40578;53.178;5.846;2023-07-16T00:09:27;8.85;;;4.45;;
54679;SDS011;40578;53.178;5.846;2023-07-16T00:11:53;11.93;;;4.25;;
54679;SDS011;40578;53.178;5.846;2023-07-16T00:14:18;16.73;;;5.23;;
54679;SDS011;40578;53.178;5.846;2023-07-16T00:16:44;14.20;;;4.03;;
54679;SDS011;40578;53.178;5.846;2023-07-16T00:19:10;13.97;;;4.53;;
54679;SDS011;40578;53.178;5.846;2023-07-16T00:21:37;13.90;;;4.97;;
54679;SDS011;40578;53.178;5.846;2023-07-16T00:26:29;10.93;;;4.78;;
54679;SDS011;40578;53.178;5.846;2023-07-16T00:28:54;20.13;;;5.33;;
54679;SDS011;40578;53.178;5.846;2023-07-16T00:31:20;12.50;;;4.40;;
54679;SDS011;40578;53.178;5.846;2023-07-16T00:33:46;11.70;;;4.03;;
54679;SDS011;40578;53.178;5.846;2023-07-16T00:36:11;15.67;;;4.17;;
54679;SDS011;40578;53.178;5.846;2023-07-16T00:38:37;10.03;;;3.60;;
54679;SDS011;40578;53.178;5.846;2023-07-16T00:41:05;12.93;;;3.17;;
54679;SDS011;40578;53.178;5.846;2023-07-16T00:43:30;8.93;;;3.67;;
54679;SDS011;40578;53.178;5.846;2023-07-16T00:45:56;11.47;;;3.90;;
54679;SDS011;40578;53.178;5.846;2023-07-16T00:48:22;10.43;;;3.55;;
54679;SDS011;40578;53.178;5.846;2023-07-16T00:50:49;12.05;;;3.45;;
54679;SDS011;40578;53.178;5.846;2023-07-16T00:53:17;11.90;;;3.38;;
54679;SDS011;40578;53.178;5.846;2023-07-16T00:55:43;12.68;;;4.28;;
54679;SDS011;40578;53.178;5.846;2023-07-16T00:58:08;13.07;;;4.37;;
54679;SDS011;40578;53.178;5.846;2023-07-16T01:00:35;10.73;;;4.27;;
54679;SDS011;40578;53.178;5.846;2023-07-16T01:03:06;16.70;;;3.90;;
54679;SDS011;40578;53.178;5.846;2023-07-16T01:05:50;10.32;;;4.35;;
54679;SDS011;40578;53.178;5.846;2023-07-16T01:11:03;10.73;;;3.50;;
54679;SDS011;40578;53.178;5.846;2023-07-16T01:13:29;9.85;;;3.63;;
54679;SDS011;40578;53.178;5.846;2023-07-16T01:15:55;15.02;;;4.07;;
54679;SDS011;40578;53.178;5.846;2023-07-16T01:18:21;11.83;;;4.30;;
54679;SDS011;40578;53.178;5.846;2023-07-16T01:20:46;16.03;;;4.80;;
54679;SDS011;40578;53.178;5.846;2023-07-16T01:31:47;15.63;;;4.45;;
54679;SDS011;40578;53.178;5.846;2023-07-16T01:34:14;14.18;;;4.70;;
54679;SDS011;40578;53.178;5.846;2023-07-16T01:36:41;16.48;;;4.90;;
54679;SDS011;40578;53.178;5.846;2023-07-16T01:39:07;9.63;;;4.47;;
54679;SDS011;40578;53.178;5.846;2023-07-16T01:41:33;10.77;;;4.37;;
54679;SDS011;40578;53.178;5.846;2023-07-16T01:43:59;17.07;;;5.07;;
54679;SDS011;40578;53.178;5.846;2023-07-16T01:46:24;8.83;;;4.20;;
54679;SDS011;40578;53.178;5.846;2023-07-16T01:48:50;15.40;;;4.15;;
54679;SDS011;40578;53.178;5.846;2023-07-16T01:51:16;12.43;;;4.03;;
54679;SDS011;40578;53.178;5.846;2023-07-16T01:53:42;10.83;;;3.67;;
54679;SDS011;40578;53.178;5.846;2023-07-16T01:56:07;9.57;;;3.77;;
54679;SDS011;40578;53.178;5.846;2023-07-16T01:58:33;11.57;;;3.80;;
54679;SDS011;40578;53.178;5.846;2023-07-16T02:00:59;14.70;;;3.47;;
54679;SDS011;40578;53.178;5.846;2023-07-16T02:03:24;10.63;;;3.23;;
54679;SDS011;40578;53.178;5.846;2023-07-16T02:05:50;9.67;;;3.20;;
54679;SDS011;40578;53.178;5.846;2023-07-16T02:08:16;9.80;;;3.23;;
54679;SDS011;40578;53.178;5.846;2023-07-16T02:10:43;11.57;;;3.22;;
54679;SDS011;40578;53.178;5.846;2023-07-16T02:13:08;13.50;;;3.43;;
54679;SDS011;40578;53.178;5.846;2023-07-16T02:15:34;9.73;;;3.20;;
54679;SDS011;40578;53.178;5.846;2023-07-16T02:18:00;6.77;;;2.50;;
54679;SDS011;40578;53.178;5.846;2023-07-16T02:20:25;9.80;;;3.87;;
54679;SDS011;40578;53.178;5.846;2023-07-16T02:22:51;8.13;;;2.50;;
54679;SDS011;40578;53.178;5.846;2023-07-16T02:25:16;8.97;;;3.07;;
54679;SDS011;40578;53.178;5.846;2023-07-16T02:27:42;5.83;;;2.97;;
54679;SDS011;40578;53.178;5.846;2023-07-16T02:30:08;6.97;;;2.97;;
54679;SDS011;40578;53.178;5.846;2023-07-16T02:32:33;9.93;;;3.80;;
54679;SDS011;40578;53.178;5.846;2023-07-16T02:34:59;10.33;;;4.63;;
54679;SDS011;40578;53.178;5.846;2023-07-16T02:37:26;9.20;;;4.45;;
54679;SDS011;40578;53.178;5.846;2023-07-16T02:39:51;12.27;;;4.87;;
54679;SDS011;40578;53.178;5.846;2023-07-16T02:42:17;13.27;;;5.10;;
54679;SDS011;40578;53.178;5.846;2023-07-16T02:44:42;13.53;;;4.73;;
54679;SDS011;40578;53.178;5.846;2023-07-16T02:47:10;12.60;;;5.10;;
54679;SDS011;40578;53.178;5.846;2023-07-16T02:49:39;12.15;;;4.90;;
54679;SDS011;40578;53.178;5.846;2023-07-16T02:52:05;14.15;;;5.20;;
54679;SDS011;40578;53.178;5.846;2023-07-16T02:54:31;13.65;;;5.03;;
54679;SDS011;40578;53.178;5.846;2023-07-16T02:56:57;13.98;;;5.53;;
54679;SDS011;40578;53.178;5.846;2023-07-16T02:59:23;11.95;;;5.00;;
54679;SDS011;40578;53.178;5.846;2023-07-16T03:01:49;10.60;;;5.13;;
54679;SDS011;40578;53.178;5.846;2023-07-16T03:06:41;9.35;;;4.75;;
54679;SDS011;40578;53.178;5.846;2023-07-16T03:09:07;14.73;;;5.43;;
54679;SDS011;40578;53.178;5.846;2023-07-16T03:11:32;10.33;;;4.87;;
54679;SDS011;40578;53.178;5.846;2023-07-16T03:13:58;12.27;;;5.47;;
54679;SDS011;40578;53.178;5.846;2023-07-16T03:16:23;13.50;;;6.00;;
54679;SDS011;40578;53.178;5.846;2023-07-16T03:18:49;12.70;;;5.30;;
54679;SDS011;40578;53.178;5.846;2023-07-16T03:21:15;14.33;;;5.27;;
54679;SDS011;40578;53.178;5.846;2023-07-16T03:23:40;15.63;;;6.13;;
54679;SDS011;40578;53.178;5.846;2023-07-16T03:26:06;9.97;;;5.50;;
54679;SDS011;40578;53.178;5.846;2023-07-16T03:28:31;16.47;;;6.10;;
54679;SDS011;40578;53.178;5.846;2023-07-16T03:30:57;13.87;;;6.17;;
54679;SDS011;40578;53.178;5.846;2023-07-16T03:33:22;17.13;;;6.00;;
54679;SDS011;40578;53.178;5.846;2023-07-16T03:35:48;14.00;;;5.70;;
54679;SDS011;40578;53.178;5.846;2023-07-16T03:38:14;13.43;;;5.45;;
54679;SDS011;40578;53.178;5.846;2023-07-16T03:40:42;13.88;;;5.97;;
54679;SDS011;40578;53.178;5.846;2023-07-16T03:43:11;11.43;;;5.75;;
54679;SDS011;40578;53.178;5.846;2023-07-16T03:45:37;12.80;;;5.80;;
54679;SDS011;40578;53.178;5.846;2023-07-16T03:48:03;10.73;;;5.00;;
54679;SDS011;40578;53.178;5.846;2023-07-16T03:50:28;17.00;;;6.72;;
54679;SDS011;40578;53.178;5.846;2023-07-16T03:52:54;12.73;;;6.00;;
54679;SDS011;40578;53.178;5.846;2023-07-16T03:55:20;12.60;;;5.27;;
54679;SDS011;40578;53.178;5.846;2023-07-16T03:57:46;10.98;;;5.47;;
54679;SDS011;40578;53.178;5.846;2023-07-16T04:00:12;13.40;;;5.63;;
54679;SDS011;40578;53.178;5.846;2023-07-16T04:02:37;13.17;;;5.97;;
54679;SDS011;40578;53.178;5.846;2023-07-16T04:05:03;14.97;;;6.73;;
54679;SDS011;40578;53.178;5.846;2023-07-16T04:07:29;13.00;;;5.87;;
54679;SDS011;40578;53.178;5.846;2023-07-16T04:09:54;12.43;;;5.73;;
54679;SDS011;40578;53.178;5.846;2023-07-16T04:12:20;13.97;;;6.07;;
54679;SDS011;40578;53.178;5.846;2023-07-16T04:14:46;14.57;;;5.50;;
54679;SDS011;40578;53.178;5.846;2023-07-16T04:17:12;14.10;;;5.65;;
54679;SDS011;40578;53.178;5.846;2023-07-16T04:19:38;16.33;;;5.90;;
54679;SDS011;40578;53.178;5.846;2023-07-16T04:22:04;13.98;;;6.05;;
54679;SDS011;40578;53.178;5.846;2023-07-16T04:24:29;16.03;;;6.70;;
54679;SDS011;40578;53.178;5.846;2023-07-16T04:26:55;10.03;;;5.30;;
54679;SDS011;40578;53.178;5.846;2023-07-16T04:29:21;14.10;;;6.03;;
54679;SDS011;40578;53.178;5.846;2023-07-16T04:31:47;12.43;;;6.07;;
54679;SDS011;40578;53.178;5.846;2023-07-16T04:34:12;9.77;;;5.37;;
54679;SDS011;40578;53.178;5.846;2023-07-16T04:36:38;13.33;;;5.80;;
54679;SDS011;40578;53.178;5.846;2023-07-16T04:39:04;12.52;;;5.97;;
54679;SDS011;40578;53.178;5.846;2023-07-16T04:41:30;10.43;;;6.10;;
54679;SDS011;40578;53.178;5.846;2023-07-16T04:43:55;13.07;;;5.70;;
54679;SDS011;40578;53.178;5.846;2023-07-16T04:46:21;10.67;;;5.13;;
54679;SDS011;40578;53.178;5.846;2023-07-16T04:48:47;13.03;;;5.50;;
54679;SDS011;40578;53.178;5.846;2023-07-16T04:51:12;15.17;;;6.00;;
54679;SDS011;40578;53.178;5.846;2023-07-16T04:53:38;12.80;;;5.70;;
54679;SDS011;40578;53.178;5.846;2023-07-16T04:56:04;11.13;;;5.07;;
54679;SDS011;40578;53.178;5.846;2023-07-16T04:58:35;14.55;;;5.65;;
54679;SDS011;40578;53.178;5.846;2023-07-16T05:01:00;14.73;;;5.30;;
54679;SDS011;40578;53.178;5.846;2023-07-16T05:03:26;13.60;;;5.87;;
54679;SDS011;40578;53.178;5.846;2023-07-16T05:05:51;16.03;;;6.57;;
54679;SDS011;40578;53.178;5.846;2023-07-16T05:08:17;12.23;;;6.33;;
54679;SDS011;40578;53.178;5.846;2023-07-16T05:10:43;15.93;;;6.33;;
54679;SDS011;40578;53.178;5.846;2023-07-16T05:13:08;18.80;;;8.07;;
54679;SDS011;40578;53.178;5.846;2023-07-16T05:15:34;13.63;;;6.20;;
54679;SDS011;40578;53.178;5.846;2023-07-16T05:17:59;11.93;;;5.30;;
54679;SDS011;40578;53.178;5.846;2023-07-16T05:20:25;14.20;;;6.63;;
54679;SDS011;40578;53.178;5.846;2023-07-16T05:22:51;15.23;;;6.20;;
54679;SDS011;40578;53.178;5.846;2023-07-16T05:25:16;15.47;;;6.90;;
54679;SDS011;40578;53.178;5.846;2023-07-16T05:27:42;14.60;;;6.17;;
54679;SDS011;40578;53.178;5.846;2023-07-16T05:30:07;16.37;;;6.37;;
54679;SDS011;40578;53.178;5.846;2023-07-16T05:32:33;17.35;;;6.07;;
54679;SDS011;40578;53.178;5.846;2023-07-16T05:34:59;12.52;;;6.07;;
54679;SDS011;40578;53.178;5.846;2023-07-16T05:37:25;13.30;;;5.90;;
54679;SDS011;40578;53.178;5.846;2023-07-16T05:39:51;13.20;;;6.22;;
54679;SDS011;40578;53.178;5.846;2023-07-16T05:42:17;17.03;;;5.87;;
54679;SDS011;40578;53.178;5.846;2023-07-16T05:44:43;13.73;;;5.33;;
54679;SDS011;40578;53.178;5.846;2023-07-16T05:47:11;13.45;;;5.60;;
54679;SDS011;40578;53.178;5.846;2023-07-16T05:49:37;13.90;;;5.80;;
54679;SDS011;40578;53.178;5.846;2023-07-16T05:52:03;9.47;;;4.57;;
54679;SDS011;40578;53.178;5.846;2023-07-16T05:54:29;11.85;;;4.75;;
54679;SDS011;40578;53.178;5.846;2023-07-16T05:56:55;12.35;;;5.25;;
54679;SDS011;40578;53.178;5.846;2023-07-16T05:59:20;10.07;;;4.73;;
54679;SDS011;40578;53.178;5.846;2023-07-16T06:01:46;14.43;;;5.00;;
54679;SDS011;40578;53.178;5.846;2023-07-16T06:04:12;11.37;;;5.10;;
54679;SDS011;40578;53.178;5.846;2023-07-16T06:06:38;9.45;;;4.65;;
54679;SDS011;40578;53.178;5.846;2023-07-16T06:09:04;11.43;;;4.97;;
54679;SDS011;40578;53.178;5.846;2023-07-16T06:11:30;12.40;;;4.93;;
54679;SDS011;40578;53.178;5.846;2023-07-16T06:13:56;14.73;;;6.25;;
54679;SDS011;40578;53.178;5.846;2023-07-16T06:16:21;12.57;;;5.03;;
54679;SDS011;40578;53.178;5.846;2023-07-16T06:18:47;15.43;;;5.97;;
54679;SDS011;40578;53.178;5.846;2023-07-16T06:21:13;12.23;;;4.57;;
54679;SDS011;40578;53.178;5.846;2023-07-16T06:23:38;12.97;;;5.10;;
54679;SDS011;40578;53.178;5.846;2023-07-16T06:26:05;12.93;;;5.13;;
54679;SDS011;40578;53.178;5.846;2023-07-16T06:28:30;12.97;;;5.07;;
54679;SDS011;40578;53.178;5.846;2023-07-16T06:30:57;10.32;;;5.03;;
54679;SDS011;40578;53.178;5.846;2023-07-16T06:33:22;15.53;;;6.40;;
54679;SDS011;40578;53.178;5.846;2023-07-16T06:35:50;10.32;;;5.40;;
54679;SDS011;40578;53.178;5.846;2023-07-16T06:38:16;13.17;;;5.20;;
54679;SDS011;40578;53.178;5.846;2023-07-16T06:40:48;13.47;;;5.20;;
54679;SDS011;40578;53.178;5.846;2023-07-16T06:43:15;13.40;;;5.78;;
54679;SDS011;40578;53.178;5.846;2023-07-16T06:48:07;13.68;;;5.90;;
54679;SDS011;40578;53.178;5.846;2023-07-16T06:50:32;13.50;;;5.30;;
54679;SDS011;40578;53.178;5.846;2023-07-16T06:52:58;13.70;;;6.07;;
54679;SDS011;40578;53.178;5.846;2023-07-16T06:55:24;15.63;;;5.37;;
54679;SDS011;40578;53.178;5.846;2023-07-16T06:57:49;14.43;;;5.30;;
54679;SDS011;40578;53.178;5.846;2023-07-16T07:00:16;15.50;;;5.50;;
54679;SDS011;40578;53.178;5.846;2023-07-16T07:02:42;13.70;;;5.50;;
54679;SDS011;40578;53.178;5.846;2023-07-16T07:05:08;17.77;;;6.17;;
54679;SDS011;40578;53.178;5.846;2023-07-16T07:07:33;12.27;;;5.33;;
54679;SDS011;40578;53.178;5.846;2023-07-16T07:09:59;15.90;;;6.00;;
54679;SDS011;40578;53.178;5.846;2023-07-16T07:12:25;15.40;;;5.47;;
54679;SDS011;40578;53.178;5.846;2023-07-16T07:14:50;17.57;;;5.30;;
54679;SDS011;40578;53.178;5.846;2023-07-16T07:17:16;15.43;;;5.63;;
54679;SDS011;40578;53.178;5.846;2023-07-16T07:19:43;15.77;;;6.23;;
54679;SDS011;40578;53.178;5.846;2023-07-16T07:22:09;16.10;;;6.15;;
54679;SDS011;40578;53.178;5.846;2023-07-16T07:24:35;14.03;;;6.17;;
54679;SDS011;40578;53.178;5.846;2023-07-16T07:27:00;19.50;;;5.93;;
54679;SDS011;40578;53.178;5.846;2023-07-16T07:29:26;14.77;;;6.53;;
54679;SDS011;40578;53.178;5.846;2023-07-16T07:31:52;15.30;;;5.73;;
54679;SDS011;40578;53.178;5.846;2023-07-16T07:34:18;14.50;;;5.78;;
54679;SDS011;40578;53.178;5.846;2023-07-16T07:36:44;14.77;;;5.50;;
54679;SDS011;40578;53.178;5.846;2023-07-16T07:39:10;10.93;;;5.40;;
54679;SDS011;40578;53.178;5.846;2023-07-16T07:41:35;13.90;;;6.47;;
54679;SDS011;40578;53.178;5.846;2023-07-16T07:44:01;10.60;;;5.50;;
54679;SDS011;40578;53.178;5.846;2023-07-16T07:46:26;11.70;;;5.80;;
54679;SDS011;40578;53.178;5.846;2023-07-16T07:48:52;12.33;;;5.50;;
54679;SDS011;40578;53.178;5.846;2023-07-16T07:51:19;17.17;;;5.85;;
54679;SDS011;40578;53.178;5.846;2023-07-16T07:53:45;13.38;;;5.50;;
54679;SDS011;40578;53.178;5.846;2023-07-16T07:56:11;12.63;;;5.13;;
54679;SDS011;40578;53.178;5.846;2023-07-16T07:58:36;12.77;;;4.97;;
54679;SDS011;40578;53.178;5.846;2023-07-16T08:01:08;11.53;;;4.97;;
54679;SDS011;40578;53.178;5.846;2023-07-16T08:03:34;11.32;;;5.13;;
54679;SDS011;40578;53.178;5.846;2023-07-16T08:06:00;10.67;;;5.27;;
54679;SDS011;40578;53.178;5.846;2023-07-16T08:08:26;12.32;;;5.15;;
54679;SDS011;40578;53.178;5.846;2023-07-16T08:10:52;13.20;;;5.50;;
54679;SDS011;40578;53.178;5.846;2023-07-16T08:13:18;11.18;;;6.05;;
54679;SDS011;40578;53.178;5.846;2023-07-16T08:15:44;12.90;;;5.97;;
54679;SDS011;40578;53.178;5.846;2023-07-16T08:18:09;12.87;;;6.33;;
54679;SDS011;40578;53.178;5.846;2023-07-16T08:20:35;12.13;;;5.57;;
54679;SDS011;40578;53.178;5.846;2023-07-16T08:23:01;13.40;;;6.13;;
54679;SDS011;40578;53.178;5.846;2023-07-16T08:25:27;11.07;;;5.47;;
54679;SDS011;40578;53.178;5.846;2023-07-16T08:27:53;12.57;;;5.25;;
54679;SDS011;40578;53.178;5.846;2023-07-16T08:30:19;11.23;;;5.40;;
54679;SDS011;40578;53.178;5.846;2023-07-16T08:32:45;12.47;;;5.13;;
54679;SDS011;40578;53.178;5.846;2023-07-16T08:35:10;11.50;;;5.27;;
54679;SDS011;40578;53.178;5.846;2023-07-16T08:37:44;10.60;;;4.88;;
54679;SDS011;40578;53.178;5.846;2023-07-16T08:40:11;15.32;;;5.28;;
54679;SDS011;40578;53.178;5.846;2023-07-16T08:42:40;9.98;;;4.90;;
54679;SDS011;40578;53.178;5.846;2023-07-16T08:45:12;10.18;;;5.13;;
54679;SDS011;40578;53.178;5.846;2023-07-16T08:47:39;12.13;;;4.70;;
54679;SDS011;40578;53.178;5.846;2023-07-16T08:50:05;11.53;;;4.93;;
54679;SDS011;40578;53.178;5.846;2023-07-16T08:52:31;12.27;;;4.55;;
54679;SDS011;40578;53.178;5.846;2023-07-16T08:54:57;12.30;;;4.13;;
54679;SDS011;40578;53.178;5.846;2023-07-16T08:57:22;16.33;;;4.73;;
54679;SDS011;40578;53.178;5.846;2023-07-16T08:59:49;12.23;;;4.57;;
54679;SDS011;40578;53.178;5.846;2023-07-16T09:02:18;12.18;;;4.15;;
54679;SDS011;40578;53.178;5.846;2023-07-16T09:04:47;14.98;;;5.35;;
54679;SDS011;40578;53.178;5.846;2023-07-16T09:07:14;14.25;;;4.38;;
54679;SDS011;40578;53.178;5.846;2023-07-16T09:09:39;11.13;;;5.38;;
54679;SDS011;40578;53.178;5.846;2023-07-16T09:12:05;16.57;;;4.97;;
54679;SDS011;40578;53.178;5.846;2023-07-16T09:14:31;13.43;;;4.50;;
54679;SDS011;40578;53.178;5.846;2023-07-16T09:16:56;12.53;;;5.20;;
54679;SDS011;40578;53.178;5.846;2023-07-16T09:19:22;12.60;;;5.90;;
54679;SDS011;40578;53.178;5.846;2023-07-16T09:21:50;8.90;;;5.05;;
54679;SDS011;40578;53.178;5.846;2023-07-16T09:24:16;15.15;;;5.75;;
54679;SDS011;40578;53.178;5.846;2023-07-16T09:29:18;14.77;;;5.32;;
54679;SDS011;40578;53.178;5.846;2023-07-16T09:31:54;12.00;;;5.55;;
54679;SDS011;40578;53.178;5.846;2023-07-16T09:34:20;11.45;;;5.30;;
54679;SDS011;40578;53.178;5.846;2023-07-16T09:36:49;10.20;;;4.47;;
54679;SDS011;40578;53.178;5.846;2023-07-16T09:39:18;12.43;;;5.10;;
54679;SDS011;40578;53.178;5.846;2023-07-16T09:41:45;15.25;;;4.95;;
54679;SDS011;40578;53.178;5.846;2023-07-16T09:44:13;11.70;;;4.93;;
54679;SDS011;40578;53.178;5.846;2023-07-16T09:46:38;9.50;;;3.88;;
54679;SDS011;40578;53.178;5.846;2023-07-16T09:49:06;9.67;;;4.60;;
54679;SDS011;40578;53.178;5.846;2023-07-16T09:51:32;10.23;;;5.30;;
54679;SDS011;40578;53.178;5.846;2023-07-16T09:54:01;10.00;;;4.65;;
54679;SDS011;40578;53.178;5.846;2023-07-16T09:56:28;11.43;;;4.80;;
54679;SDS011;40578;53.178;5.846;2023-07-16T09:59:08;10.43;;;5.00;;
54679;SDS011;40578;53.178;5.846;2023-07-16T10:01:37;11.40;;;4.32;;
54679;SDS011;40578;53.178;5.846;2023-07-16T10:04:16;12.48;;;4.45;;
54679;SDS011;40578;53.178;5.846;2023-07-16T10:06:52;16.27;;;4.40;;
54679;SDS011;40578;53.178;5.846;2023-07-16T10:14:47;11.10;;;4.80;;
54679;SDS011;40578;53.178;5.846;2023-07-16T10:17:15;12.40;;;4.82;;
54679;SDS011;40578;53.178;5.846;2023-07-16T10:19:51;11.47;;;4.57;;
54679;SDS011;40578;53.178;5.846;2023-07-16T10:22:34;11.93;;;4.18;;
54679;SDS011;40578;53.178;5.846;2023-07-16T10:25:04;10.07;;;4.20;;
54679;SDS011;40578;53.178;5.846;2023-07-16T10:27:48;11.23;;;4.45;;
54679;SDS011;40578;53.178;5.846;2023-07-16T10:30:15;11.70;;;4.63;;
54679;SDS011;40578;53.178;5.846;2023-07-16T10:32:41;13.02;;;3.92;;
54679;SDS011;40578;53.178;5.846;2023-07-16T10:35:08;10.88;;;4.38;;
54679;SDS011;40578;53.178;5.846;2023-07-16T10:37:34;15.88;;;5.25;;
54679;SDS011;40578;53.178;5.846;2023-07-16T10:40:01;11.10;;;4.15;;
54679;SDS011;40578;53.178;5.846;2023-07-16T10:42:30;12.55;;;4.60;;
54679;SDS011;40578;53.178;5.846;2023-07-16T10:45:01;12.63;;;4.60;;
54679;SDS011;40578;53.178;5.846;2023-07-16T10:47:31;10.02;;;4.00;;
54679;SDS011;40578;53.178;5.846;2023-07-16T10:49:57;17.98;;;5.45;;
54679;SDS011;40578;53.178;5.846;2023-07-16T10:52:24;14.63;;;5.47;;
54679;SDS011;40578;53.178;5.846;2023-07-16T10:54:50;11.02;;;4.78;;
54679;SDS011;40578;53.178;5.846;2023-07-16T10:57:19;12.32;;;5.03;;
54679;SDS011;40578;53.178;5.846;2023-07-16T11:02:13;8.40;;;4.10;;
54679;SDS011;40578;53.178;5.846;2023-07-16T11:04:40;11.65;;;4.75;;
54679;SDS011;40578;53.178;5.846;2023-07-16T11:07:07;11.75;;;4.70;;
54679;SDS011;40578;53.178;5.846;2023-07-16T11:09:34;9.63;;;3.97;;
54679;SDS011;40578;53.178;5.846;2023-07-16T11:12:07;10.55;;;4.10;;
54679;SDS011;40578;53.178;5.846;2023-07-16T11:14:34;13.20;;;3.88;;
54679;SDS011;40578;53.178;5.846;2023-07-16T11:17:06;13.07;;;3.47;;
54679;SDS011;40578;53.178;5.846;2023-07-16T11:19:33;9.95;;;3.00;;
54679;SDS011;40578;53.178;5.846;2023-07-16T11:22:01;11.27;;;3.78;;
54679;SDS011;40578;53.178;5.846;2023-07-16T11:24:27;12.77;;;3.75;;
54679;SDS011;40578;53.178;5.846;2023-07-16T11:26:56;7.10;;;3.23;;
54679;SDS011;40578;53.178;5.846;2023-07-16T11:29:24;13.18;;;4.15;;
54679;SDS011;40578;53.178;5.846;2023-07-16T11:31:53;12.80;;;3.60;;
54679;SDS011;40578;53.178;5.846;2023-07-16T11:34:19;9.20;;;2.45;;
54679;SDS011;40578;53.178;5.846;2023-07-16T11:36:46;9.02;;;2.10;;
54679;SDS011;40578;53.178;5.846;2023-07-16T11:39:12;11.63;;;2.90;;
54679;SDS011;40578;53.178;5.846;2023-07-16T11:41:37;12.48;;;2.65;;
54679;SDS011;40578;53.178;5.846;2023-07-16T11:44:03;9.97;;;2.53;;
54679;SDS011;40578;53.178;5.846;2023-07-16T11:46:32;8.07;;;2.05;;
54679;SDS011;40578;53.178;5.846;2023-07-16T11:51:24;9.93;;;2.40;;
54679;SDS011;40578;53.178;5.846;2023-07-16T11:53:50;9.40;;;2.47;;
54679;SDS011;40578;53.178;5.846;2023-07-16T11:56:16;10.37;;;3.07;;
54679;SDS011;40578;53.178;5.846;2023-07-16T11:58:41;9.70;;;3.43;;
54679;SDS011;40578;53.178;5.846;2023-07-16T12:01:07;9.50;;;2.63;;
54679;SDS011;40578;53.178;5.846;2023-07-16T12:03:33;11.57;;;3.40;;
54679;SDS011;40578;53.178;5.846;2023-07-16T12:05:59;12.02;;;3.35;;
54679;SDS011;40578;53.178;5.846;2023-07-16T12:08:24;12.63;;;4.23;;
54679;SDS011;40578;53.178;5.846;2023-07-16T12:10:50;14.27;;;4.43;;
54679;SDS011;40578;53.178;5.846;2023-07-16T12:13:16;12.13;;;3.58;;
54679;SDS011;40578;53.178;5.846;2023-07-16T12:15:42;10.00;;;3.90;;
54679;SDS011;40578;53.178;5.846;2023-07-16T12:18:07;14.10;;;4.30;;
54679;SDS011;40578;53.178;5.846;2023-07-16T12:20:36;11.80;;;4.70;;
54679;SDS011;40578;53.178;5.846;2023-07-16T12:23:02;8.88;;;4.07;;
54679;SDS011;40578;53.178;5.846;2023-07-16T12:25:28;17.23;;;5.00;;
54679;SDS011;40578;53.178;5.846;2023-07-16T12:27:53;16.57;;;4.57;;
54679;SDS011;40578;53.178;5.846;2023-07-16T12:30:19;14.90;;;4.60;;
54679;SDS011;40578;53.178;5.846;2023-07-16T12:32:45;17.63;;;4.93;;
54679;SDS011;40578;53.178;5.846;2023-07-16T12:35:11;18.03;;;4.97;;
54679;SDS011;40578;53.178;5.846;2023-07-16T12:37:36;13.93;;;5.07;;
54679;SDS011;40578;53.178;5.846;2023-07-16T12:40:02;12.53;;;5.27;;
54679;SDS011;40578;53.178;5.846;2023-07-16T12:42:28;18.98;;;4.22;;
54679;SDS011;40578;53.178;5.846;2023-07-16T12:44:54;18.93;;;4.33;;
54679;SDS011;40578;53.178;5.846;2023-07-16T12:47:19;10.00;;;3.20;;
54679;SDS011;40578;53.178;5.846;2023-07-16T12:49:45;16.83;;;4.07;;
54679;SDS011;40578;53.178;5.846;2023-07-16T12:52:11;13.47;;;3.73;;
54679;SDS011;40578;53.178;5.846;2023-07-16T12:54:36;15.87;;;4.17;;
54679;SDS011;40578;53.178;5.846;2023-07-16T12:57:02;10.60;;;2.73;;
54679;SDS011;40578;53.178;5.846;2023-07-16T12:59:28;13.00;;;3.10;;
54679;SDS011;40578;53.178;5.846;2023-07-16T13:01:54;9.43;;;2.90;;
54679;SDS011;40578;53.178;5.846;2023-07-16T13:04:19;17.47;;;3.30;;
54679;SDS011;40578;53.178;5.846;2023-07-16T13:06:45;13.47;;;3.30;;
54679;SDS011;40578;53.178;5.846;2023-07-16T13:09:13;10.55;;;3.15;;
54679;SDS011;40578;53.178;5.846;2023-07-16T13:11:39;16.25;;;3.42;;
54679;SDS011;40578;53.178;5.846;2023-07-16T13:16:32;14.15;;;3.15;;
54679;SDS011;40578;53.178;5.846;2023-07-16T13:18:57;12.80;;;3.37;;
54679;SDS011;40578;53.178;5.846;2023-07-16T13:21:23;12.40;;;2.67;;
54679;SDS011;40578;53.178;5.846;2023-07-16T13:23:48;13.00;;;3.17;;
54679;SDS011;40578;53.178;5.846;2023-07-16T13:26:14;13.17;;;2.50;;
54679;SDS011;40578;53.178;5.846;2023-07-16T13:28:39;10.67;;;2.47;;
54679;SDS011;40578;53.178;5.846;2023-07-16T13:31:05;10.80;;;2.70;;
54679;SDS011;40578;53.178;5.846;2023-07-16T13:33:31;12.15;;;3.10;;
54679;SDS011;40578;53.178;5.846;2023-07-16T13:35:56;14.30;;;3.60;;
54679;SDS011;40578;53.178;5.846;2023-07-16T13:38:25;14.25;;;2.72;;
54679;SDS011;40578;53.178;5.846;2023-07-16T13:40:50;12.30;;;3.10;;
54679;SDS011;40578;53.178;5.846;2023-07-16T13:43:16;15.13;;;3.47;;
54679;SDS011;40578;53.178;5.846;2023-07-16T13:45:41;15.83;;;2.77;;
54679;SDS011;40578;53.178;5.846;2023-07-16T13:48:07;16.20;;;2.90;;
54679;SDS011;40578;53.178;5.846;2023-07-16T13:50:33;16.03;;;3.43;;
54679;SDS011;40578;53.178;5.846;2023-07-16T13:52:58;15.97;;;3.13;;
54679;SDS011;40578;53.178;5.846;2023-07-16T13:55:26;11.93;;;3.33;;
54679;SDS011;40578;53.178;5.846;2023-07-16T13:57:53;12.10;;;2.80;;
54679;SDS011;40578;53.178;5.846;2023-07-16T14:00:20;14.25;;;3.60;;
54679;SDS011;40578;53.178;5.846;2023-07-16T14:02:47;13.40;;;3.00;;
54679;SDS011;40578;53.178;5.846;2023-07-16T14:05:13;15.15;;;3.47;;
54679;SDS011;40578;53.178;5.846;2023-07-16T14:07:38;9.50;;;2.30;;
54679;SDS011;40578;53.178;5.846;2023-07-16T14:10:04;12.95;;;2.35;;
54679;SDS011;40578;53.178;5.846;2023-07-16T14:12:30;12.00;;;3.03;;
54679;SDS011;40578;53.178;5.846;2023-07-16T14:14:56;7.13;;;2.00;;
54679;SDS011;40578;53.178;5.846;2023-07-16T14:17:22;10.77;;;2.13;;
54679;SDS011;40578;53.178;5.846;2023-07-16T14:19:48;9.37;;;1.90;;
54679;SDS011;40578;53.178;5.846;2023-07-16T14:22:14;9.82;;;2.17;;
54679;SDS011;40578;53.178;5.846;2023-07-16T14:24:41;11.82;;;2.13;;
54679;SDS011;40578;53.178;5.846;2023-07-16T14:29:33;13.57;;;2.63;;
54679;SDS011;40578;53.178;5.846;2023-07-16T14:32:00;10.18;;;2.35;;
54679;SDS011;40578;53.178;5.846;2023-07-16T14:34:26;12.20;;;2.60;;
54679;SDS011;40578;53.178;5.846;2023-07-16T14:36:52;10.43;;;2.00;;
54679;SDS011;40578;53.178;5.846;2023-07-16T14:39:18;12.43;;;2.75;;
54679;SDS011;40578;53.178;5.846;2023-07-16T14:41:44;7.43;;;1.90;;
54679;SDS011;40578;53.178;5.846;2023-07-16T14:44:10;13.05;;;2.00;;
54679;SDS011;40578;53.178;5.846;2023-07-16T14:46:35;10.05;;;2.30;;
54679;SDS011;40578;53.178;5.846;2023-07-16T14:49:02;14.10;;;2.20;;
54679;SDS011;40578;53.178;5.846;2023-07-16T14:51:28;8.25;;;1.85;;
54679;SDS011;40578;53.178;5.846;2023-07-16T14:53:55;9.40;;;1.70;;
54679;SDS011;40578;53.178;5.846;2023-07-16T14:56:20;9.02;;;2.10;;
54679;SDS011;40578;53.178;5.846;2023-07-16T14:58:46;11.93;;;2.03;;
54679;SDS011;40578;53.178;5.846;2023-07-16T15:01:12;9.17;;;2.00;;
54679;SDS011;40578;53.178;5.846;2023-07-16T15:03:39;9.95;;;2.30;;
54679;SDS011;40578;53.178;5.846;2023-07-16T15:06:07;8.95;;;1.80;;
54679;SDS011;40578;53.178;5.846;2023-07-16T15:08:33;10.80;;;2.17;;